createdAt,value
2017-10-26T00:01:27.562Z,3.90
2017-10-26T00:03:56.048Z,3.73
2017-10-26T00:06:24.808Z,3.30
2017-10-26T00:08:52.442Z,3.97
2017-10-26T00:11:20.112Z,4.10
2017-10-26T00:13:47.761Z,4.50
2017-10-26T00:16:15.388Z,6.50
2017-10-26T00:18:43.047Z,4.50
2017-10-26T00:21:10.680Z,4.83
2017-10-26T00:23:38.349Z,4.93
2017-10-26T00:26:05.992Z,5.30
2017-10-26T00:28:33.676Z,5.77
2017-10-26T00:31:02.071Z,9.67
2017-10-26T00:33:29.697Z,7.23
2017-10-26T00:35:57.347Z,5.70
2017-10-26T00:38:24.982Z,7.37
2017-10-26T00:40:53.060Z,9.67
2017-10-26T00:43:20.715Z,8.83
2017-10-26T00:45:48.424Z,7.70
2017-10-26T00:48:16.091Z,8.27
2017-10-26T00:50:44.516Z,7.43
2017-10-26T00:53:12.189Z,7.83
2017-10-26T00:55:39.840Z,8.30
2017-10-26T00:58:07.541Z,7.67
2017-10-26T01:00:35.232Z,6.93
2017-10-26T01:03:02.937Z,7.63
2017-10-26T01:05:30.620Z,7.13
2017-10-26T01:07:59.056Z,6.63
2017-10-26T01:10:26.759Z,6.83
2017-10-26T01:12:55.194Z,6.63
2017-10-26T01:15:22.995Z,7.20
2017-10-26T01:17:51.436Z,6.03
2017-10-26T01:20:19.111Z,6.00
2017-10-26T01:22:46.828Z,5.40
2017-10-26T01:25:14.564Z,5.60
2017-10-26T01:27:43.059Z,5.60
2017-10-26T01:30:10.776Z,5.00
2017-10-26T01:32:38.909Z,4.80
2017-10-26T01:35:06.648Z,5.50
2017-10-26T01:37:35.123Z,5.63
2017-10-26T01:40:03.611Z,5.10
2017-10-26T01:42:31.315Z,5.40
2017-10-26T01:44:59.031Z,5.00
2017-10-26T01:47:27.494Z,7.00
2017-10-26T01:49:56.072Z,6.17
2017-10-26T01:52:23.763Z,5.83
2017-10-26T01:54:51.463Z,4.80
2017-10-26T01:57:19.217Z,7.00
2017-10-26T01:59:46.916Z,7.77
2017-10-26T02:02:14.614Z,7.03
2017-10-26T02:04:42.295Z,7.13
2017-10-26T02:07:10.141Z,8.40
2017-10-26T02:09:37.832Z,7.13
2017-10-26T02:12:05.509Z,7.77
2017-10-26T02:31:41.694Z,8.47
2017-10-26T02:34:09.450Z,7.70
2017-10-26T02:36:37.104Z,9.27
2017-10-26T02:39:04.864Z,7.73
2017-10-26T02:41:32.530Z,9.80
2017-10-26T02:44:00.223Z,7.20
2017-10-26T02:46:27.932Z,9.17
2017-10-26T02:48:55.592Z,9.83
2017-10-26T02:51:23.241Z,7.90
2017-10-26T02:53:51.314Z,7.60
2017-10-26T02:56:18.971Z,8.93
2017-10-26T02:58:46.655Z,7.40
2017-10-26T03:01:14.401Z,9.07
2017-10-26T03:03:42.106Z,9.50
2017-10-26T03:06:10.568Z,8.97
2017-10-26T03:08:38.424Z,9.80
2017-10-26T03:11:06.079Z,8.33
2017-10-26T03:13:33.766Z,10.07
2017-10-26T03:16:02.216Z,10.07
2017-10-26T03:18:29.894Z,11.03
2017-10-26T03:20:57.551Z,10.73
2017-10-26T03:23:25.228Z,8.93
2017-10-26T03:25:53.679Z,8.87
2017-10-26T03:28:21.337Z,10.20
2017-10-26T03:30:49.017Z,9.53
2017-10-26T03:33:16.688Z,9.10
2017-10-26T03:35:45.148Z,9.20
2017-10-26T03:38:12.796Z,9.00
2017-10-26T03:40:40.435Z,8.37
2017-10-26T03:43:08.075Z,9.00
2017-10-26T03:45:35.721Z,9.03
2017-10-26T03:48:03.388Z,9.83
2017-10-26T03:50:31.057Z,11.10
2017-10-26T03:52:58.857Z,10.57
2017-10-26T03:55:26.497Z,11.83
2017-10-26T03:57:54.140Z,10.27
2017-10-26T04:00:21.809Z,9.80
2017-10-26T04:02:49.442Z,10.97
2017-10-26T04:05:17.116Z,11.00
2017-10-26T04:07:44.776Z,11.03
2017-10-26T04:10:12.410Z,9.77
2017-10-26T04:12:40.846Z,9.97
2017-10-26T04:15:08.520Z,10.53
2017-10-26T04:17:36.327Z,11.10
2017-10-26T04:20:03.999Z,10.97
2017-10-26T04:22:31.637Z,10.37
2017-10-26T04:24:59.295Z,8.90
2017-10-26T04:27:27.736Z,9.77
2017-10-26T04:29:55.464Z,10.07
2017-10-26T04:32:23.187Z,10.67
2017-10-26T04:34:51.632Z,13.93
2017-10-26T04:37:19.307Z,14.00
2017-10-26T04:39:46.972Z,11.17
2017-10-26T04:42:14.670Z,11.77
2017-10-26T04:44:42.297Z,12.50
2017-10-26T04:47:10.744Z,12.57
2017-10-26T04:49:38.427Z,10.23
2017-10-26T04:52:06.094Z,10.73
2017-10-26T04:54:33.776Z,11.97
2017-10-26T04:57:02.167Z,13.40
2017-10-26T04:59:29.775Z,11.00
2017-10-26T05:01:57.425Z,13.67
2017-10-26T05:04:25.047Z,12.57
2017-10-26T05:06:52.740Z,14.10
2017-10-26T05:09:20.351Z,13.10
2017-10-26T05:11:48.736Z,14.47
2017-10-26T05:14:17.152Z,14.67
2017-10-26T05:16:44.767Z,15.00
2017-10-26T05:19:13.308Z,15.87
2017-10-26T05:21:40.939Z,16.13
2017-10-26T05:24:08.557Z,16.50
2017-10-26T05:26:36.980Z,15.07
2017-10-26T05:29:04.669Z,14.80
2017-10-26T05:31:32.447Z,16.37
2017-10-26T05:34:01.011Z,15.67
2017-10-26T05:36:28.768Z,12.87
2017-10-26T05:38:56.561Z,13.77
2017-10-26T05:41:24.238Z,11.57
2017-10-26T05:43:52.852Z,12.20
2017-10-26T05:46:21.530Z,10.33
2017-10-26T05:48:49.249Z,14.67
2017-10-26T05:51:17.764Z,11.40
2017-10-26T05:53:45.450Z,12.07
2017-10-26T05:56:13.144Z,11.80
2017-10-26T05:58:40.847Z,12.43
2017-10-26T06:01:08.628Z,12.30
2017-10-26T06:03:36.309Z,13.87
2017-10-26T06:06:03.964Z,15.00
2017-10-26T06:08:31.657Z,16.13
2017-10-26T06:10:59.292Z,17.60
2017-10-26T06:13:26.976Z,20.57
2017-10-26T06:15:55.429Z,21.93
2017-10-26T06:18:23.124Z,24.13
2017-10-26T06:20:51.566Z,24.73
2017-10-26T06:23:20.036Z,24.90
2017-10-26T06:25:47.700Z,27.13
2017-10-26T06:28:15.370Z,26.23
2017-10-26T06:30:43.152Z,26.20
2017-10-26T06:33:10.816Z,26.43
2017-10-26T06:35:38.531Z,29.50
2017-10-26T06:38:06.203Z,29.30
2017-10-26T06:40:33.851Z,28.00
2017-10-26T06:43:01.544Z,28.93
2017-10-26T06:45:29.270Z,26.10
2017-10-26T06:47:57.022Z,24.07
2017-10-26T06:50:24.696Z,22.93
2017-10-26T06:52:52.416Z,22.83
2017-10-26T06:55:20.080Z,20.87
2017-10-26T06:57:48.512Z,19.80
2017-10-26T07:00:16.181Z,18.50
2017-10-26T07:02:43.882Z,15.67
2017-10-26T07:05:12.318Z,15.60
2017-10-26T07:07:39.960Z,16.00
2017-10-26T07:10:07.652Z,15.57
2017-10-26T07:12:35.335Z,14.03
2017-10-26T07:15:03.797Z,14.20
2017-10-26T07:17:31.553Z,14.10
2017-10-26T07:19:59.228Z,14.37
2017-10-26T07:22:26.942Z,13.90
2017-10-26T07:24:54.580Z,12.03
2017-10-26T07:27:22.303Z,13.37
2017-10-26T07:29:49.952Z,14.80
2017-10-26T07:32:17.641Z,13.87
2017-10-26T07:34:46.085Z,13.83
2017-10-26T07:37:13.752Z,14.43
2017-10-26T07:39:41.478Z,13.43
2017-10-26T07:42:09.160Z,12.30
2017-10-26T07:44:36.875Z,10.47
2017-10-26T07:47:04.556Z,9.30
2017-10-26T07:49:32.223Z,7.53
2017-10-26T07:51:59.903Z,6.57
2017-10-26T07:54:27.612Z,7.10
2017-10-26T07:56:56.104Z,7.53
2017-10-26T07:59:23.757Z,6.77
2017-10-26T08:01:52.309Z,5.90
2017-10-26T08:04:19.948Z,5.47
2017-10-26T08:06:47.602Z,5.27
2017-10-26T08:09:15.296Z,4.20
2017-10-26T08:11:42.940Z,3.60
2017-10-26T08:14:10.673Z,3.23
2017-10-26T08:16:38.336Z,3.40
2017-10-26T08:19:06.001Z,2.83
2017-10-26T08:21:33.752Z,3.17
2017-10-26T08:24:01.423Z,3.27
2017-10-26T08:26:29.202Z,2.53
2017-10-26T08:28:56.853Z,3.00
2017-10-26T08:31:24.572Z,3.67
2017-10-26T08:33:52.259Z,3.73
2017-10-26T08:36:19.939Z,3.20
2017-10-26T08:38:47.611Z,3.27
2017-10-26T08:41:15.263Z,3.30
2017-10-26T08:43:42.944Z,3.13
2017-10-26T08:46:10.588Z,3.70
2017-10-26T08:48:38.325Z,3.60
2017-10-26T08:51:06.036Z,2.80
2017-10-26T08:53:34.489Z,3.97
2017-10-26T08:56:02.210Z,3.93
2017-10-26T08:58:29.933Z,4.00
2017-10-26T09:00:58.399Z,3.70
2017-10-26T09:03:26.071Z,3.40
2017-10-26T09:05:53.828Z,3.80
2017-10-26T09:08:21.492Z,3.10
2017-10-26T09:10:49.176Z,3.40
2017-10-26T09:13:17.615Z,2.83
2017-10-26T09:15:45.371Z,3.03
2017-10-26T09:18:13.089Z,3.23
2017-10-26T09:20:40.830Z,2.73
2017-10-26T09:23:08.608Z,3.87
2017-10-26T09:25:36.312Z,2.87
2017-10-26T09:28:04.001Z,2.53
2017-10-26T09:30:31.754Z,2.90
2017-10-26T09:33:05.068Z,2.97
2017-10-26T09:35:32.843Z,3.20
2017-10-26T09:38:00.593Z,2.77
2017-10-26T09:40:29.130Z,3.43
2017-10-26T09:42:56.872Z,2.80
2017-10-26T09:45:24.641Z,2.10
2017-10-26T09:47:52.361Z,2.30
2017-10-26T09:50:20.840Z,2.30
2017-10-26T09:52:49.328Z,1.80
2017-10-26T09:55:17.843Z,2.13
2017-10-26T09:57:45.601Z,2.10
2017-10-26T10:00:13.299Z,2.50
2017-10-26T10:02:41.032Z,2.17
2017-10-26T10:05:08.749Z,1.67
2017-10-26T10:07:36.484Z,2.20
2017-10-26T10:10:04.179Z,2.30
2017-10-26T10:12:32.676Z,2.10
2017-10-26T10:15:00.366Z,2.00
2017-10-26T10:17:28.192Z,2.20
2017-10-26T10:19:56.672Z,2.37
2017-10-26T10:22:25.161Z,2.23
2017-10-26T10:24:52.910Z,2.07
2017-10-26T10:27:20.624Z,2.57
2017-10-26T10:29:48.355Z,2.57
2017-10-26T10:32:16.067Z,2.30
2017-10-26T10:34:43.922Z,2.90
2017-10-26T10:37:11.625Z,3.13
2017-10-26T10:39:39.310Z,3.17
2017-10-26T10:42:07.029Z,2.73
2017-10-26T10:44:35.496Z,2.90
2017-10-26T10:47:03.257Z,3.17
2017-10-26T10:49:30.966Z,2.73
2017-10-26T10:51:58.667Z,3.40
2017-10-26T10:54:26.388Z,3.80
2017-10-26T10:56:54.079Z,3.43
2017-10-26T10:59:27.311Z,3.10
2017-10-26T11:01:55.785Z,3.67
2017-10-26T11:04:23.502Z,3.80
2017-10-26T11:06:51.239Z,3.20
2017-10-26T11:09:18.930Z,3.00
2017-10-26T11:11:46.664Z,3.13
2017-10-26T11:14:14.356Z,2.67
2017-10-26T11:16:42.116Z,3.13
2017-10-26T11:19:09.824Z,3.50
2017-10-26T11:21:38.288Z,2.70
2017-10-26T11:24:06.010Z,2.97
2017-10-26T11:26:34.468Z,3.30
2017-10-26T11:29:02.187Z,2.83
2017-10-26T11:31:29.875Z,3.13
2017-10-26T11:33:57.684Z,3.07
2017-10-26T11:36:25.369Z,2.67
2017-10-26T11:38:53.053Z,2.50
2017-10-26T11:41:21.509Z,2.50
2017-10-26T11:43:49.200Z,2.40
2017-10-26T11:46:16.908Z,2.13
2017-10-26T11:48:44.601Z,2.27
2017-10-26T11:51:12.388Z,2.17
2017-10-26T11:53:40.037Z,2.70
2017-10-26T11:56:08.475Z,2.50
2017-10-26T11:58:36.210Z,2.37
2017-10-26T12:01:03.953Z,2.10
2017-10-26T12:03:31.726Z,2.43
2017-10-26T12:05:59.420Z,2.23
2017-10-26T12:08:27.332Z,2.50
2017-10-26T12:10:55.901Z,2.83
2017-10-26T12:13:24.438Z,3.37
2017-10-26T12:15:52.187Z,3.00
2017-10-26T12:18:19.880Z,2.80
2017-10-26T12:20:48.467Z,2.83
2017-10-26T12:23:16.230Z,2.77
2017-10-26T12:25:44.117Z,2.73
2017-10-26T12:28:12.622Z,2.30
2017-10-26T12:30:40.392Z,2.40
2017-10-26T12:33:08.164Z,2.50
2017-10-26T12:35:36.607Z,2.70
2017-10-26T12:38:05.124Z,2.17
2017-10-26T12:40:32.861Z,2.90
2017-10-26T12:43:01.491Z,2.10
2017-10-26T12:45:29.184Z,2.20
2017-10-26T12:47:56.911Z,2.03
2017-10-26T12:50:24.607Z,2.00
2017-10-26T12:52:53.106Z,2.13
2017-10-26T12:55:21.606Z,1.70
2017-10-26T12:57:49.287Z,1.97
2017-10-26T13:00:17.064Z,1.97
2017-10-26T13:02:44.753Z,2.40
2017-10-26T13:05:13.198Z,2.20
2017-10-26T13:07:40.927Z,2.00
2017-10-26T13:10:08.645Z,2.17
2017-10-26T13:12:36.391Z,2.10
2017-10-26T13:15:04.271Z,2.23
2017-10-26T13:17:32.988Z,2.87
2017-10-26T13:20:00.704Z,2.80
2017-10-26T13:22:28.467Z,2.03
2017-10-26T13:24:56.194Z,2.30
2017-10-26T13:27:23.886Z,3.00
2017-10-26T13:29:51.572Z,2.20
2017-10-26T13:32:20.026Z,2.93
2017-10-26T13:34:47.743Z,3.00
2017-10-26T13:37:15.471Z,2.07
2017-10-26T13:39:43.931Z,2.10
2017-10-26T13:42:11.733Z,2.70
2017-10-26T13:44:39.388Z,4.90
2017-10-26T13:47:07.848Z,4.10
2017-10-26T13:49:35.500Z,4.50
2017-10-26T13:52:03.257Z,4.20
2017-10-26T13:54:30.939Z,4.00
2017-10-26T13:56:58.567Z,4.63
2017-10-26T13:59:26.322Z,4.30
2017-10-26T14:01:54.034Z,4.37
2017-10-26T14:04:22.476Z,4.70
2017-10-26T14:06:50.111Z,4.50
2017-10-26T14:09:17.848Z,5.10
2017-10-26T14:11:45.484Z,5.00
2017-10-26T14:14:13.115Z,4.30
2017-10-26T14:16:40.804Z,5.27
2017-10-26T14:19:08.469Z,5.50
2017-10-26T14:21:36.932Z,5.43
2017-10-26T14:24:04.560Z,4.97
2017-10-26T14:26:32.280Z,4.80
2017-10-26T14:29:00.741Z,4.13
2017-10-26T14:31:29.300Z,5.20
2017-10-26T14:33:57.010Z,4.60
2017-10-26T14:36:24.629Z,5.00
2017-10-26T14:38:54.594Z,4.47
2017-10-26T14:41:22.220Z,4.20
2017-10-26T14:43:49.897Z,4.10
2017-10-26T14:46:17.559Z,4.20
2017-10-26T14:48:45.981Z,4.30
2017-10-26T14:51:13.651Z,4.37
2017-10-26T14:53:41.284Z,5.00
2017-10-26T14:56:09.009Z,4.13
2017-10-26T14:58:38.537Z,4.70
2017-10-26T15:01:06.239Z,4.60
2017-10-26T15:03:33.895Z,5.30
2017-10-26T15:06:01.565Z,6.00
2017-10-26T15:08:29.248Z,4.87
2017-10-26T15:10:57.660Z,6.00
2017-10-26T15:13:25.327Z,5.60
2017-10-26T15:15:52.999Z,6.20
2017-10-26T15:18:20.627Z,6.90
2017-10-26T15:20:48.309Z,7.60
2017-10-26T15:23:15.947Z,7.07
2017-10-26T15:25:43.656Z,7.40
2017-10-26T15:28:11.286Z,8.07
2017-10-26T15:30:38.998Z,7.57
2017-10-26T15:33:06.644Z,6.60
2017-10-26T15:35:34.259Z,7.10
2017-10-26T15:38:01.970Z,8.40
2017-10-26T15:40:29.635Z,6.40
2017-10-26T15:42:57.320Z,7.00
2017-10-26T15:45:25.702Z,6.60
2017-10-26T15:47:54.122Z,8.47
2017-10-26T15:50:21.811Z,8.20
2017-10-26T15:52:49.450Z,8.40
2017-10-26T15:55:17.148Z,8.27
2017-10-26T15:57:45.576Z,7.70
2017-10-26T16:00:13.799Z,8.27
2017-10-26T16:02:41.460Z,7.90
2017-10-26T16:05:09.871Z,7.70
2017-10-26T16:07:37.631Z,7.50
2017-10-26T16:10:05.291Z,8.57
2017-10-26T16:12:33.027Z,8.67
2017-10-26T16:15:01.435Z,8.07
2017-10-26T16:17:29.140Z,9.80
2017-10-26T16:19:57.482Z,9.73
2017-10-26T16:22:25.134Z,10.10
2017-10-26T16:24:53.567Z,10.80
2017-10-26T16:27:21.991Z,12.00
2017-10-26T16:29:49.656Z,12.27
2017-10-26T16:32:17.371Z,12.70
2017-10-26T16:34:45.843Z,13.70
2017-10-26T16:37:13.492Z,14.20
2017-10-26T16:39:41.293Z,14.50
2017-10-26T16:42:09.073Z,12.87
2017-10-26T16:44:36.742Z,14.97
2017-10-26T16:47:07.103Z,14.70
2017-10-26T16:49:34.847Z,17.33
2017-10-26T16:52:02.559Z,17.73
2017-10-26T16:54:31.022Z,20.60
2017-10-26T16:56:59.571Z,23.23
2017-10-26T16:59:27.361Z,24.33
2017-10-26T17:01:55.046Z,23.73
2017-10-26T17:04:23.537Z,23.30
2017-10-26T17:06:51.233Z,24.40
2017-10-26T17:09:19.021Z,24.27
2017-10-26T17:11:46.723Z,24.30
2017-10-26T17:14:14.424Z,25.30
2017-10-26T17:16:42.243Z,27.93
2017-10-26T17:19:10.724Z,28.80
2017-10-26T17:21:39.223Z,28.87
2017-10-26T17:24:06.982Z,28.43
2017-10-26T17:26:34.727Z,26.90
2017-10-26T17:29:02.463Z,21.63
2017-10-26T17:31:30.968Z,25.80
2017-10-26T17:33:58.694Z,20.93
2017-10-26T17:36:26.385Z,21.90
2017-10-26T17:38:54.171Z,26.40
2017-10-26T17:41:22.665Z,22.00
2017-10-26T17:43:50.441Z,24.00
2017-10-26T17:46:18.199Z,27.07
2017-10-26T17:48:45.880Z,24.60
2017-10-26T17:51:14.211Z,22.27
2017-10-26T17:53:42.581Z,23.40
2017-10-26T17:56:13.150Z,22.80
2017-10-26T17:58:41.627Z,23.30
2017-10-26T18:01:10.501Z,20.70
2017-10-26T18:03:38.956Z,22.93
2017-10-26T18:06:07.401Z,22.97
2017-10-26T18:08:35.713Z,23.10
2017-10-26T18:11:04.624Z,21.37
2017-10-26T18:13:34.084Z,21.80
2017-10-26T18:16:02.277Z,22.90
2017-10-26T18:18:31.232Z,24.40
2017-10-26T18:21:00.386Z,23.03
2017-10-26T18:23:29.438Z,22.10
2017-10-26T18:25:58.732Z,25.20
2017-10-26T18:28:30.094Z,24.80
2017-10-26T18:31:01.052Z,23.53
2017-10-26T18:33:30.910Z,24.37
2017-10-26T18:35:59.505Z,22.63
2017-10-26T18:38:28.198Z,25.83
2017-10-26T18:40:57.676Z,28.87
2017-10-26T18:43:26.346Z,25.00
2017-10-26T18:45:54.247Z,23.63
2017-10-26T18:48:22.243Z,26.10
2017-10-26T18:50:50.035Z,25.20
2017-10-26T18:53:17.880Z,22.10
2017-10-26T18:55:45.822Z,21.87
2017-10-26T18:58:13.740Z,22.83
2017-10-26T19:00:42.378Z,27.40
2017-10-26T19:03:10.083Z,23.97
2017-10-26T19:05:37.859Z,24.73
2017-10-26T19:08:05.967Z,26.30
2017-10-26T19:10:33.856Z,26.67
2017-10-26T19:13:01.756Z,26.97
2017-10-26T19:15:29.664Z,26.50
2017-10-26T19:17:57.434Z,25.83
2017-10-26T19:20:25.527Z,26.93
2017-10-26T19:22:53.393Z,27.20
2017-10-26T19:25:21.409Z,28.03
2017-10-26T19:27:49.955Z,27.80
2017-10-26T19:30:17.853Z,26.90
2017-10-26T19:32:45.755Z,26.30
2017-10-26T19:35:13.759Z,26.80
2017-10-26T19:37:41.713Z,26.03
2017-10-26T19:40:09.579Z,28.93
2017-10-26T19:42:37.464Z,26.40
2017-10-26T19:45:05.409Z,26.27
2017-10-26T19:47:33.243Z,26.57
2017-10-26T19:50:01.082Z,27.90
2017-10-26T19:52:29.184Z,25.93
2017-10-26T19:54:57.157Z,27.33
2017-10-26T19:57:25.142Z,29.00
2017-10-26T19:59:53.060Z,26.60
2017-10-26T20:02:21.787Z,26.17
2017-10-26T20:04:49.688Z,27.93
2017-10-26T20:07:17.473Z,27.47
2017-10-26T20:09:46.383Z,27.30
2017-10-26T20:12:14.289Z,25.97
2017-10-26T20:14:42.079Z,27.80
2017-10-26T20:17:10.548Z,29.10
2017-10-26T20:19:38.984Z,27.27
2017-10-26T20:22:06.648Z,26.50
2017-10-26T20:24:34.267Z,26.13
2017-10-26T20:27:02.710Z,25.40
2017-10-26T20:29:30.346Z,30.20
2017-10-26T20:31:57.987Z,31.43
2017-10-26T20:34:25.672Z,28.47
2017-10-26T20:36:54.322Z,26.93
2017-10-26T20:39:22.855Z,28.23
2017-10-26T20:41:51.656Z,27.23
2017-10-26T20:44:20.426Z,31.47
2017-10-26T20:46:49.380Z,29.07
2017-10-26T20:49:24.139Z,29.70
2017-10-26T20:55:03.634Z,29.90
2017-10-26T20:57:37.321Z,30.17
2017-10-26T21:00:12.118Z,33.47
2017-10-26T21:02:45.766Z,28.83
2017-10-26T21:05:19.241Z,30.33
2017-10-26T21:07:53.339Z,30.73
2017-10-26T21:10:28.191Z,29.50
2017-10-26T21:13:02.419Z,29.20
2017-10-26T21:15:30.114Z,29.90
2017-10-26T21:17:58.562Z,27.10
2017-10-26T21:20:26.239Z,32.77
2017-10-26T21:22:53.896Z,29.57
2017-10-26T21:25:22.077Z,29.90
2017-10-26T21:27:50.012Z,28.63
2017-10-26T21:30:17.895Z,29.23
2017-10-26T21:32:46.019Z,29.17
2017-10-26T21:35:14.544Z,27.80
2017-10-26T21:37:42.876Z,27.57
2017-10-26T21:40:11.090Z,28.40
2017-10-26T21:42:39.323Z,26.37
2017-10-26T21:45:07.705Z,28.43
2017-10-26T21:47:36.445Z,27.57
2017-10-26T21:50:04.163Z,28.77
2017-10-26T21:52:31.968Z,27.47
2017-10-26T21:54:59.900Z,27.20
2017-10-26T21:57:28.687Z,26.20
2017-10-26T21:59:56.964Z,26.33
2017-10-26T22:02:24.781Z,24.10
2017-10-26T22:04:52.417Z,22.87
2017-10-26T22:07:20.852Z,24.90
2017-10-26T22:09:49.267Z,23.87
2017-10-26T22:12:16.941Z,25.47
2017-10-26T22:14:44.592Z,23.63
2017-10-26T22:17:12.229Z,24.07
2017-10-26T22:19:39.887Z,23.50
2017-10-26T22:22:09.514Z,23.80
2017-10-26T22:24:37.160Z,24.60
2017-10-26T22:27:04.797Z,22.57
2017-10-26T22:29:32.437Z,24.70
2017-10-26T22:32:00.107Z,21.67
2017-10-26T22:34:27.730Z,19.60
2017-10-26T22:36:55.408Z,20.80
2017-10-26T22:39:23.045Z,19.20
2017-10-26T22:41:50.732Z,19.77
2017-10-26T22:44:18.406Z,21.20
2017-10-26T22:46:46.832Z,18.07
2017-10-26T22:49:14.515Z,16.70
2017-10-26T22:51:42.157Z,17.50
2017-10-26T22:54:09.934Z,18.20
2017-10-26T22:56:37.560Z,16.53
2017-10-26T22:59:05.183Z,16.13
2017-10-26T23:01:32.848Z,15.33
2017-10-26T23:04:00.503Z,15.97
2017-10-26T23:06:28.162Z,13.57
2017-10-26T23:08:55.783Z,14.30
2017-10-26T23:11:23.475Z,14.10
2017-10-26T23:13:51.092Z,16.10
2017-10-26T23:16:18.744Z,15.43
2017-10-26T23:18:46.414Z,12.20
2017-10-26T23:21:14.058Z,13.33
2017-10-26T23:23:41.700Z,14.43
2017-10-26T23:26:10.079Z,11.10
2017-10-26T23:28:38.520Z,13.43
2017-10-26T23:31:06.176Z,13.17
2017-10-26T23:33:33.796Z,10.70
2017-10-26T23:36:01.459Z,11.97
2017-10-26T23:38:29.099Z,11.57
2017-10-26T23:40:57.529Z,11.47
2017-10-26T23:43:25.160Z,9.67
2017-10-26T23:45:52.932Z,10.13
2017-10-26T23:48:20.564Z,9.47
2017-10-26T23:50:48.956Z,10.90
2017-10-26T23:53:16.607Z,11.10
2017-10-26T23:55:44.995Z,10.60
2017-10-26T23:58:12.658Z,10.60
